Latest Weather Observations for Rottnest Island

IDW60801

Issued at 6:04 am WST Friday 24 March 2017 (issued every 30 minutes, with the page automatically refreshed every 10 minutes)

About weather observations | Map of weather stations | Latest weather observations for WA | Other Formats
Station Details ID: 009193 Name: ROTTNEST ISLAND Lat: -32.01 Lon: 115.50 Height: 43.1 m
Data from the previous 72 hours. | See also: Recent months at Rottnest Island
Date/Time
WST
Temp
°C
App
Temp
°C
Dew
Point
°C
Rel
Hum
%
Delta-T
°C
Wind Press
QNH
hPa
Press
MSL
hPa
Rain since
9am
mm
Dir  Spd
km/h
Gust
km/h
Spd
kts
Gust
kts
24/06:00am 17.0 14.8 15.0 88 1.2 SSE 20 26 11 14 1014.7 1014.5 2.4
24/05:30am 17.1 14.9 14.9 87 1.3 SSE 20 28 11 15 1014.5 1014.3 2.4
24/05:00am 17.4 14.5 15.2 87 1.3 SE 24 32 13 17 1014.4 1014.2 2.4
24/04:30am 18.2 14.7 15.6 85 1.5 SSE 28 35 15 19 1014.2 1014.0 2.4
24/04:00am 18.2 14.3 15.5 84 1.6 SSE 30 39 16 21 1013.8 1013.6 2.4
24/03:30am 18.5 14.1 15.6 83 1.7 SSE 33 41 18 22 1013.7 1013.5 2.4
24/03:00am 18.6 14.3 15.5 82 1.8 SSE 32 43 17 23 1013.9 1013.7 2.4
24/02:30am 18.6 14.8 15.7 83 1.7 S 30 37 16 20 1014.1 1013.9 2.4
24/02:00am 18.7 14.5 15.6 82 1.8 S 32 39 17 21 1013.9 1013.7 2.4
24/01:30am 18.8 14.6 15.7 82 1.8 SSE 32 39 17 21 1014.0 1013.8 2.4
24/01:00am 19.1 14.7 15.6 80 2.1 S 33 41 18 22 1014.1 1013.9 2.4
24/12:30am 19.0 14.5 15.3 79 2.2 S 33 41 18 22 1014.3 1014.1 2.4
24/12:00am 19.0 14.2 15.5 80 2.1 S 35 41 19 22 1014.2 1014.0 2.4
 
Date/Time
WST
Temp
°C
App
Temp
°C
Dew
Point
°C
Rel
Hum
%
Delta-T
°C
Wind Press
QNH
hPa
Press
MSL
hPa
Rain since
9am
mm
Dir  Spd
km/h
Gust
km/h
Spd
kts
Gust
kts
23/11:30pm 19.0 14.8 15.7 81 2.0 S 32 37 17 20 1014.2 1014.0 2.4
23/11:00pm 19.0 14.6 15.7 81 2.0 S 33 43 18 23 1014.3 1014.1 2.4
23/10:30pm 19.1 14.4 15.8 81 2.0 S 35 43 19 23 1014.3 1014.1 2.4
23/10:00pm 19.2 14.5 15.9 81 2.0 S 35 46 19 25 1014.5 1014.3 2.4
23/09:30pm 19.3 14.3 16.2 82 1.9 S 37 46 20 25 1014.4 1014.2 2.4
23/09:00pm 19.4 14.0 16.1 81 2.0 S 39 48 21 26 1014.2 1014.0 2.4
23/08:30pm 19.4 14.0 16.1 81 2.0 S 39 48 21 26 1014.4 1014.2 2.4
23/08:00pm 19.4 14.7 15.9 80 2.1 S 35 44 19 24 1014.2 1014.0 2.4
23/07:30pm 19.5 14.9 16.0 80 2.1 SSW 35 43 19 23 1014.3 1014.1 2.4
23/07:00pm 19.5 14.4 15.8 79 2.2 SSW 37 44 20 24 1013.8 1013.6 2.4
23/06:30pm 19.4 14.0 15.9 80 2.1 SSW 39 46 21 25 1013.5 1013.3 2.4
23/06:00pm 18.9 14.2 15.8 82 1.8 SSW 35 43 19 23 1013.6 1013.4 2.4
23/05:30pm 20.0 14.9 15.8 77 2.5 SSW 37 48 20 26 1013.5 1013.3 2.4
23/05:00pm 19.9 14.9 16.0 78 2.3 SSW 37 46 20 25 1013.3 1013.1 2.4
23/04:30pm 20.4 16.0 15.6 74 2.9 SSW 33 43 18 23 1013.3 1013.1 2.4
23/04:00pm 20.7 15.9 15.5 72 3.1 SSW 35 43 19 23 1013.0 1012.8 2.4
23/03:30pm 21.5 16.7 15.6 69 3.5 SSW 35 46 19 25 1013.0 1012.8 2.4
23/03:00pm 20.6 15.7 15.4 72 3.1 SSW 35 44 19 24 1012.8 1012.6 2.4
23/02:30pm 21.4 16.8 16.1 72 3.2 SSW 35 43 19 23 1012.7 1012.5 2.4
23/02:00pm 21.2 17.0 15.7 71 3.3 SSW 32 41 17 22 1012.9 1012.7 2.4
23/01:30pm 21.0 16.0 15.1 69 3.5 SSW 35 43 19 23 1012.9 1012.7 2.4
23/01:00pm 21.6 17.6 16.6 73 3.0 SSW 33 43 18 23 1013.2 1013.0 2.4
23/12:30pm 20.8 16.7 16.0 74 2.9 SSW 32 41 17 22 1013.3 1013.1 2.4
23/12:00pm 21.0 17.2 16.8 77 2.6 SSW 32 37 17 20 1013.4 1013.2 2.4
23/11:30am 19.9 16.5 16.7 82 1.9 SSW 30 39 16 21 1013.6 1013.4 2.4
23/11:00am 18.2 16.6 16.0 87 1.3 SSW 19 37 10 20 1014.0 1013.8 2.4
23/10:30am 20.4 16.8 16.2 77 2.5 S 30 35 16 19 1013.8 1013.6 0.0
23/10:00am 19.3 15.1 15.8 80 2.1 S 32 41 17 22 1013.8 1013.6 0.0
23/09:30am 19.2 15.1 15.9 81 2.0 S 32 37 17 20 1013.6 1013.4 0.0
23/09:00am 18.5 13.4 15.7 84 1.7 S 37 46 20 25 1013.7 1013.5 1.0
23/08:30am 18.5 13.0 15.7 84 1.7 SSW 39 50 21 27 1013.5 1013.3 1.0
23/08:00am 19.5 15.8 16.0 80 2.1 S 30 35 16 19 1013.3 1013.1 1.0
23/07:30am 18.9 14.7 16.1 84 1.7 S 33 39 18 21 1012.9 1012.7 1.0
23/07:00am 18.4 14.2 16.2 87 1.3 S 33 41 18 22 1012.6 1012.4 1.0
23/06:30am 18.5 14.4 16.5 88 1.2 SSW 33 41 18 22 1012.3 1012.1 1.0
23/06:00am 18.0 13.7 16.0 88 1.2 S 33 43 18 23 1012.0 1011.8 1.0
23/05:30am 18.1 15.6 16.1 88 1.2 SSW 24 30 13 16 1012.0 1011.8 1.0
23/05:00am 18.8 14.8 15.3 80 2.1 S 30 39 16 21 1011.4 1011.2 0.6
23/04:30am 18.7 15.1 15.2 80 2.1 SSW 28 37 15 20 1011.4 1011.2 0.6
23/04:00am 19.0 14.2 15.5 80 2.1 S 35 46 19 25 1011.1 1010.9 0.6
23/03:30am 19.4 14.9 15.3 77 2.4 S 33 41 18 22 1011.0 1010.8 0.6
23/03:00am 19.3 15.1 15.6 79 2.2 S 32 39 17 21 1010.9 1010.7 0.6
23/02:30am 19.3 14.7 15.2 77 2.4 SSW 33 43 18 23 1010.9 1010.7 0.6
23/02:00am 19.3 14.5 15.6 79 2.2 SSW 35 43 19 23 1010.5 1010.3 0.6
23/01:30am 19.5 15.6 16.5 83 1.8 SSW 32 43 17 23 1010.6 1010.4 0.6
23/01:00am 19.2 14.4 16.6 85 1.6 SW 37 43 20 23 1010.5 1010.3 0.6
23/12:30am 19.9 16.3 16.3 80 2.2 SSW 30 37 16 20 1010.5 1010.3 0.6
23/12:00am 19.9 16.1 16.7 82 1.9 SW 32 39 17 21 1010.3 1010.1 0.6
 
Date/Time
WST
Temp
°C
App
Temp
°C
Dew
Point
°C
Rel
Hum
%
Delta-T
°C
Wind Press
QNH
hPa
Press
MSL
hPa
Rain since
9am
mm
Dir  Spd
km/h
Gust
km/h
Spd
kts
Gust
kts
22/11:30pm 19.7 17.0 16.7 83 1.8 SW 26 32 14 17 1010.3 1010.1 0.6
22/11:00pm 19.7 16.7 16.9 84 1.7 WSW 28 35 15 19 1010.5 1010.3 0.6
22/10:30pm 19.5 17.8 17.1 86 1.5 WSW 22 30 12 16 1010.5 1010.3 0.6
22/10:00pm 19.7 17.1 16.9 84 1.7 SW 26 35 14 19 1010.6 1010.4 0.6
22/09:30pm 19.4 15.4 16.6 84 1.7 SW 33 41 18 22 1010.4 1010.2 0.6
22/09:00pm 18.9 16.0 16.1 84 1.7 WSW 26 39 14 21 1010.5 1010.3 0.6
22/08:30pm 19.8 17.9 16.6 82 1.9 W 22 32 12 17 1010.3 1010.1 0.6
22/08:00pm 19.7 17.6 16.2 80 2.1 W 22 33 12 18 1010.0 1009.8 0.6
22/07:30pm 20.0 17.5 16.2 79 2.3 W 24 35 13 19 1009.5 1009.3 0.6
22/07:00pm 20.0 17.1 16.2 79 2.3 W 26 33 14 18 1009.3 1009.1 0.6
22/06:30pm 19.9 17.6 16.7 82 1.9 WNW 24 32 13 17 1009.2 1009.0 0.6
22/06:00pm 19.6 17.3 16.6 83 1.8 WNW 24 30 13 16 1008.9 1008.7 0.6
22/05:30pm 20.0 18.1 16.8 82 1.9 WNW 22 30 12 16 1008.8 1008.6 0.6
22/05:00pm 20.4 18.3 16.2 77 2.5 WNW 22 26 12 14 1008.6 1008.4 0.6
22/04:30pm 19.9 15.9 15.3 75 2.7 W 30 39 16 21 1008.4 1008.2 0.6
22/04:00pm 21.3 16.6 15.8 71 3.3 NW 35 46 19 25 1008.0 1007.8 0.6
22/03:30pm 22.6 18.2 16.6 69 3.7 NW 35 43 19 23 1007.7 1007.6 0.6
22/03:00pm 20.8 15.6 15.6 72 3.1 NW 37 48 20 26 1007.7 1007.6 0.6
22/02:30pm 22.9 18.3 16.2 66 4.1 NW 35 44 19 24 1007.6 1007.5 0.6
22/02:00pm 22.1 17.7 15.7 67 3.9 NW 33 41 18 22 1007.6 1007.5 0.6
22/01:30pm 23.5 19.5 16.8 66 4.1 NW 33 43 18 23 1007.5 1007.4 0.6
22/01:00pm 22.3 18.1 16.1 68 3.8 WNW 33 44 18 24 1007.5 1007.4 0.6
22/12:30pm 21.3 17.9 16.7 75 2.8 WNW 30 39 16 21 1007.6 1007.5 0.6
22/12:00pm 20.8 17.4 17.6 82 2.0 NW 32 43 17 23 1007.7 1007.6 0.6
22/11:30am 22.0 17.7 15.8 68 3.7 NW 33 41 18 22 1007.8 1007.7 0.0
22/11:00am 22.2 17.9 15.8 67 3.9 NW 33 43 18 23 1008.0 1007.8 0.0
22/10:30am 21.4 16.9 15.5 69 3.5 WNW 33 41 18 22 1008.0 1007.8 0.0
22/10:00am 21.7 17.4 15.8 69 3.5 WNW 33 41 18 22 1007.8 1007.7 0.0
22/09:30am 21.0 15.8 15.5 71 3.3 WNW 37 46 20 25 1007.7 1007.6 0.0
22/09:00am 20.6 16.2 15.6 73 3.0 WNW 33 43 18 23 1007.4 1007.3 2.6
22/08:30am 20.7 16.6 16.5 77 2.5 WNW 33 44 18 24 1007.0 1006.9 2.6
22/08:00am 19.8 15.1 15.9 78 2.3 WNW 35 46 19 25 1006.7 1006.6 2.6
22/07:30am 19.4 14.3 15.9 80 2.1 WNW 37 48 20 26 1006.3 1006.2 2.6
22/07:00am 19.0 13.6 16.0 83 1.8 WNW 39 50 21 27 1005.7 1005.6 2.6
22/06:30am 18.6 13.1 15.8 84 1.7 WNW 39 54 21 29 1005.5 1005.4 2.6
22/06:25am 19.1 14.5 16.0 82 1.8 WNW 35 54 19 29 1005.3 1005.2 2.2
22/06:00am 19.2 14.6 16.2 83 1.8 NW 35 44 19 24 1004.9 1004.8 2.2
22/05:30am 19.1 14.5 16.1 83 1.8 WNW 35 43 19 23 1004.4 1004.3 2.2
22/05:00am 19.1 15.2 16.5 85 1.6 NW 32 39 17 21 1003.7 1003.6 2.2
22/04:55am 19.2 16.2 16.8 86 1.5 NW 28 39 15 21 1003.7 1003.6 2.2
22/04:30am 18.1 17.2 15.9 87 1.3 WNW 15 15 8 8 1003.5 1003.3 2.2
22/04:00am 18.4 17.2 16.0 86 1.4 SSW 17 24 9 13 1002.1 1001.9 2.2
22/03:30am 18.6 17.4 16.0 85 1.5 WSW 17 20 9 11 1001.9 1001.7 2.2
22/03:00am 18.9 18.5 16.1 84 1.7 SW 13 17 7 9 1001.2 1001.0 2.2
22/02:30am 19.2 17.1 16.2 83 1.8 E 22 41 12 22 1000.3 1000.1 2.2
22/02:00am 19.3 16.0 16.0 81 2.0 ENE 28 41 15 22 1001.5 1001.3 2.2
22/01:30am 19.2 16.1 15.5 79 2.2 ENE 26 35 14 19 1002.5 1002.3 2.2
22/01:00am 19.0 16.9 15.1 78 2.3 E 20 30 11 16 1003.3 1003.1 2.2
22/12:30am 18.9 16.3 14.8 77 2.4 ESE 22 32 12 17 1003.5 1003.3 2.2
22/12:00am 18.8 16.6 14.9 78 2.3 E 20 32 11 17 1004.1 1004.0 2.2
 
Date/Time
WST
Temp
°C
App
Temp
°C
Dew
Point
°C
Rel
Hum
%
Delta-T
°C
Wind Press
QNH
hPa
Press
MSL
hPa
Rain since
9am
mm
Dir  Spd
km/h
Gust
km/h
Spd
kts
Gust
kts
21/11:30pm 18.9 16.7 15.0 78 2.3 E 20 28 11 15 1004.4 1004.3 2.2
21/11:00pm 18.9 16.9 15.0 78 2.3 E 19 28 10 15 1004.9 1004.8 2.2
21/10:30pm 19.0 18.2 15.1 78 2.3 E 13 17 7 9 1005.4 1005.3 2.2
21/10:00pm 18.8 16.9 15.3 80 2.1 ENE 19 28 10 15 1005.4 1005.3 2.2
21/09:30pm 19.1 18.3 15.0 77 2.4 NE 13 17 7 9 1005.7 1005.6 2.2
21/09:00pm 19.2 18.6 14.5 74 2.7 ENE 11 17 6 9 1006.1 1006.0 2.2
21/08:30pm 19.8 19.5 14.4 71 3.1 E 9 11 5 6 1005.9 1005.8 0.4
21/08:00pm 19.6 19.2 14.2 71 3.1 ESE 9 15 5 8 1005.7 1005.6 0.4
21/07:30pm 19.9 19.2 14.3 70 3.3 ENE 11 17 6 9 1005.7 1005.6 0.4
21/07:00pm 20.1 17.2 14.0 68 3.5 E 22 35 12 19 1004.8 1004.7 0.4
21/06:30pm 20.1 15.6 13.8 67 3.6 ESE 30 50 16 27 1003.8 1003.7 0.4
21/06:29pm 20.1 15.6 13.8 67 3.6 ESE 30 50 16 27 1003.7 1003.6 0.4
21/06:00pm 20.3 17.1 14.2 68 3.6 ESE 24 37 13 20 1003.9 1003.8 0.4
21/05:30pm 20.6 16.2 14.0 66 3.8 ESE 30 41 16 22 1003.7 1003.6 0.4
21/05:01pm 20.3 15.0 14.2 68 3.5 SE 35 54 19 29 1003.8 1003.7 0.4
21/05:00pm 20.3 14.6 14.2 68 3.6 SE 37 54 20 29 1003.7 1003.6 0.4
21/04:30pm 20.9 16.9 14.1 65 4.0 SE 28 48 15 26 1003.9 1003.8 0.4
21/04:23pm 21.0 16.5 13.7 63 4.2 SE 30 48 16 26 1003.9 1003.8 0.4
21/04:00pm 21.0 16.9 13.7 63 4.2 ESE 28 44 15 24 1004.4 1004.3 0.4
21/03:30pm 20.4 15.4 13.4 64 4.0 E 32 46 17 25 1005.2 1005.1 0.4
21/03:00pm 20.0 14.4 13.2 65 3.9 E 35 46 19 25 1005.7 1005.6 0.4
21/02:32pm 19.3 13.9 12.8 66 3.7 E 33 52 18 28 1005.9 1005.8 0.4
21/02:30pm 19.3 13.5 12.8 66 3.7 E 35 52 19 28 1005.9 1005.8 0.4
21/02:13pm 19.4 14.7 13.1 67 3.6 E 30 48 16 26 1006.0 1005.9 0.4
21/02:00pm 19.3 13.9 12.8 66 3.7 E 33 46 18 25 1006.2 1006.1 0.4
21/01:30pm 19.9 15.3 13.6 67 3.6 E 30 41 16 22 1006.8 1006.7 0.4
21/01:00pm 19.3 14.8 12.6 65 3.8 E 28 44 15 24 1006.6 1006.5 0.4
21/12:30pm 19.3 13.4 12.3 64 3.9 ENE 35 54 19 29 1007.4 1007.3 0.4
21/12:01pm 19.6 14.0 11.4 59 4.5 ENE 32 50 17 27 1007.5 1007.4 0.0
21/12:00pm 20.0 14.1 10.4 54 5.2 ENE 32 48 17 26 1007.5 1007.4 0.0
21/11:30am 21.0 16.0 11.1 53 5.5 E 28 39 15 21 1007.8 1007.7 0.0
21/11:00am 20.4 14.5 10.5 53 5.4 ENE 32 44 17 24 1008.7 1008.5 0.0
21/10:30am 20.3 14.8 10.7 54 5.2 ENE 30 41 16 22 1009.2 1009.0 0.0
21/10:00am 20.1 13.9 10.2 53 5.4 E 33 46 18 25 1008.9 1008.7 0.0
21/09:50am 19.8 13.8 10.0 53 5.3 E 32 50 17 27 1009.0 1008.8 0.0
21/09:30am 19.7 13.7 10.1 54 5.2 E 32 46 17 25 1009.5 1009.3 0.0
21/09:00am 19.4 13.2 10.1 55 5.0 E 33 50 18 27 1009.9 1009.7 0.0
21/08:36am 19.0 12.3 9.8 55 4.9 E 35 54 19 29 1009.6 1009.4 0.0
21/08:30am 18.9 12.3 9.9 56 4.8 E 35 50 19 27 1009.8 1009.6 0.0
21/08:00am 18.8 12.7 9.8 56 4.8 E 32 48 17 26 1010.0 1009.8 0.0
21/07:34am 18.8 12.7 9.6 55 4.9 E 32 50 17 27 1009.8 1009.6 0.0
21/07:30am 18.7 12.6 9.8 56 4.7 E 32 46 17 25 1009.9 1009.7 0.0
21/07:18am 18.8 13.0 9.6 55 4.9 E 30 50 16 27 1010.1 1009.9 0.0
21/07:00am 18.6 12.2 9.4 55 4.9 E 33 48 18 26 1009.6 1009.4 0.0
21/06:36am 18.6 11.5 9.4 55 4.8 E 37 56 20 30 1009.4 1009.2 0.0
21/06:30am 18.7 11.1 8.9 53 5.1 E 39 52 21 28 1009.3 1009.1 0.0

Other Formats:

Comma delimited format used in spreadsheet applications
http://www.bom.gov.au/fwo/IDW60801/IDW60801.94602.axf

JavaScript Object Notation format (JSON) in row-major order
http://www.bom.gov.au/fwo/IDW60801/IDW60801.94602.json